createdAt,value
2023-01-13T00:01:25.184Z,29.92
2023-01-13T00:03:52.466Z,27.48
2023-01-13T00:06:22.764Z,32.22
2023-01-13T00:08:50.600Z,31.17
2023-01-13T00:11:17.823Z,26.50
2023-01-13T00:13:44.849Z,26.70
2023-01-13T00:16:15.535Z,38.13
2023-01-13T00:18:42.643Z,35.58
2023-01-13T00:21:15.112Z,33.50
2023-01-13T00:23:42.401Z,33.53
2023-01-13T00:26:15.372Z,37.67
2023-01-13T00:28:42.124Z,42.15
2023-01-13T00:31:14.173Z,36.05
2023-01-13T00:33:41.447Z,27.17
2023-01-13T00:36:10.772Z,29.92
2023-01-13T00:38:38.790Z,31.67
2023-01-13T00:41:07.979Z,28.70
2023-01-13T00:43:36.423Z,38.25
2023-01-13T00:46:04.670Z,32.97
2023-01-13T00:48:32.409Z,36.05
2023-01-13T00:51:03.236Z,34.28
2023-01-13T00:53:33.545Z,27.88
2023-01-13T00:56:15.061Z,26.10
2023-01-13T00:58:43.073Z,25.63
2023-01-13T01:01:12.776Z,34.92
2023-01-13T01:03:40.044Z,39.03
2023-01-13T01:06:15.190Z,32.88
2023-01-13T01:08:42.271Z,29.38
2023-01-13T01:11:17.816Z,35.37
2023-01-13T01:13:45.229Z,31.02
2023-01-13T01:16:14.770Z,32.92
2023-01-13T01:18:44.176Z,32.83
2023-01-13T01:21:11.747Z,27.58
2023-01-13T01:23:39.643Z,28.87
2023-01-13T01:26:17.210Z,31.27
2023-01-13T01:28:44.652Z,33.60
2023-01-13T01:31:14.863Z,23.45
2023-01-13T01:33:42.000Z,42.88
2023-01-13T01:36:11.114Z,27.87
2023-01-13T01:38:37.996Z,31.98
2023-01-13T01:41:05.349Z,34.40
2023-01-13T01:44:22.671Z,31.15
2023-01-13T01:46:49.328Z,34.45
2023-01-13T01:49:48.953Z,36.50
2023-01-13T01:52:26.208Z,36.55
2023-01-13T01:55:13.791Z,29.38
2023-01-13T01:57:58.003Z,25.98
2023-01-13T02:00:26.882Z,33.58
2023-01-13T02:02:53.806Z,29.47
2023-01-13T02:05:20.865Z,35.10
2023-01-13T02:07:51.245Z,36.65
2023-01-13T02:10:21.389Z,41.85
2023-01-13T02:12:49.008Z,28.83
2023-01-13T02:15:22.025Z,31.37
2023-01-13T02:17:56.123Z,36.97
2023-01-13T02:20:46.165Z,30.85
2023-01-13T02:24:22.075Z,28.45
2023-01-13T02:27:12.797Z,36.30
2023-01-13T02:30:19.742Z,32.40
2023-01-13T02:33:09.778Z,38.58
2023-01-13T02:36:17.869Z,31.23
2023-01-13T02:38:52.427Z,33.60
2023-01-13T02:41:54.338Z,30.52
2023-01-13T02:44:26.511Z,35.00
2023-01-13T02:47:11.379Z,40.03
2023-01-13T02:50:03.157Z,31.13
2023-01-13T02:52:47.719Z,31.90
2023-01-13T02:55:18.947Z,35.65
2023-01-13T02:57:47.725Z,29.67
2023-01-13T03:00:16.485Z,34.97
2023-01-13T03:02:43.416Z,29.38
2023-01-13T03:05:14.498Z,39.28
2023-01-13T03:07:45.057Z,39.50
2023-01-13T03:10:26.712Z,33.63
2023-01-13T03:13:08.101Z,24.67
2023-01-13T03:15:46.783Z,35.85
2023-01-13T03:18:23.844Z,32.30
2023-01-13T03:21:02.854Z,34.20
2023-01-13T03:23:58.599Z,29.13
2023-01-13T03:26:36.753Z,37.10
2023-01-13T03:29:26.635Z,34.35
2023-01-13T03:32:03.502Z,23.25
2023-01-13T03:34:45.759Z,35.22
2023-01-13T03:37:14.653Z,27.07
2023-01-13T03:39:47.437Z,31.77
2023-01-13T03:42:24.890Z,28.10
2023-01-13T03:45:07.576Z,34.13
2023-01-13T03:47:41.198Z,39.33
2023-01-13T03:50:20.601Z,26.20
2023-01-13T03:53:02.305Z,28.65
2023-01-13T03:55:34.048Z,23.88
2023-01-13T03:58:23.595Z,37.47
2023-01-13T04:01:15.088Z,25.58
2023-01-13T04:03:57.687Z,29.60
2023-01-13T04:06:46.225Z,26.80
2023-01-13T04:09:19.909Z,20.48
2023-01-13T04:11:55.799Z,17.88
2023-01-13T04:14:24.582Z,22.35
2023-01-13T04:16:51.394Z,17.93
2023-01-13T04:19:18.111Z,21.23
2023-01-13T04:21:44.791Z,19.90
2023-01-13T04:24:11.487Z,18.73
2023-01-13T04:26:38.130Z,19.77
2023-01-13T04:29:04.774Z,17.60
2023-01-13T04:31:31.460Z,27.02
2023-01-13T04:33:58.083Z,18.83
2023-01-13T04:36:27.642Z,24.38
2023-01-13T04:38:57.328Z,12.35
2023-01-13T04:41:24.013Z,19.80
2023-01-13T04:43:50.598Z,12.05
2023-01-13T04:46:17.261Z,10.45
2023-01-13T04:48:43.952Z,12.50
2023-01-13T04:51:10.579Z,13.75
2023-01-13T04:53:37.248Z,13.00
2023-01-13T04:56:03.929Z,13.68
2023-01-13T04:58:30.598Z,14.10
2023-01-13T05:00:57.268Z,17.23
2023-01-13T05:03:24.383Z,10.98
2023-01-13T05:05:52.095Z,13.73
2023-01-13T05:08:18.716Z,13.15
2023-01-13T05:10:45.359Z,13.48
2023-01-13T05:13:30.764Z,16.58
2023-01-13T05:16:16.098Z,11.45
2023-01-13T05:18:42.753Z,10.80
2023-01-13T05:21:29.307Z,12.52
2023-01-13T05:24:14.571Z,12.82
2023-01-13T05:26:41.667Z,13.73
2023-01-13T05:29:08.368Z,19.35
2023-01-13T05:31:35.123Z,16.13
2023-01-13T05:34:01.850Z,11.00
2023-01-13T05:36:28.506Z,22.13
2023-01-13T05:38:55.129Z,18.92
2023-01-13T05:41:40.357Z,19.67
2023-01-13T05:44:06.960Z,22.27
2023-01-13T05:46:33.637Z,17.42
2023-01-13T05:49:01.581Z,19.40
2023-01-13T05:51:28.283Z,21.45
2023-01-13T05:53:54.921Z,24.27
2023-01-13T05:56:21.545Z,18.53
2023-01-13T05:58:48.164Z,17.92
2023-01-13T06:01:14.833Z,20.33
2023-01-13T06:03:41.442Z,21.38
2023-01-13T06:06:08.820Z,18.25
2023-01-13T06:08:37.468Z,10.47
2023-01-13T06:11:05.466Z,18.92
2023-01-13T06:13:32.057Z,23.98
2023-01-13T06:15:59.478Z,20.00
2023-01-13T06:18:26.992Z,20.02
2023-01-13T06:20:53.942Z,21.20
2023-01-13T06:23:20.763Z,23.33
2023-01-13T06:26:19.672Z,18.73
2023-01-13T06:28:46.432Z,26.13
2023-01-13T06:31:13.191Z,18.42
2023-01-13T06:33:46.178Z,23.83
2023-01-13T06:36:22.070Z,15.07
2023-01-13T06:38:53.083Z,20.48
2023-01-13T06:41:40.855Z,16.75
2023-01-13T06:44:07.538Z,20.75
2023-01-13T06:46:35.078Z,23.17
2023-01-13T06:49:01.999Z,24.15
2023-01-13T06:51:28.583Z,18.33
2023-01-13T06:53:55.183Z,18.13
2023-01-13T06:56:21.835Z,17.73
2023-01-13T06:58:48.514Z,20.57
2023-01-13T07:01:15.169Z,24.05
2023-01-13T07:03:41.893Z,17.90
2023-01-13T07:06:08.515Z,16.50
2023-01-13T07:08:35.172Z,12.82
2023-01-13T07:11:02.385Z,23.33
2023-01-13T07:13:47.949Z,25.80
2023-01-13T07:16:14.603Z,20.48
2023-01-13T07:18:41.383Z,27.20
2023-01-13T07:21:10.399Z,20.40
2023-01-13T07:23:39.518Z,17.00
2023-01-13T07:26:07.882Z,26.23
2023-01-13T07:28:34.896Z,31.98
2023-01-13T07:31:01.844Z,22.25
2023-01-13T07:33:32.755Z,25.02
2023-01-13T07:36:02.611Z,21.07
2023-01-13T07:38:29.864Z,27.02
2023-01-13T07:40:56.492Z,17.60
2023-01-13T07:43:32.238Z,17.65
2023-01-13T07:46:04.807Z,22.70
2023-01-13T07:48:33.666Z,22.77
2023-01-13T07:51:05.609Z,18.73
2023-01-13T07:53:33.131Z,22.73
2023-01-13T07:56:00.307Z,20.85
2023-01-13T07:58:27.789Z,20.30
2023-01-13T08:00:55.307Z,15.43
2023-01-13T08:03:22.885Z,24.73
2023-01-13T08:05:50.208Z,22.63
2023-01-13T08:08:16.933Z,22.73
2023-01-13T08:10:43.614Z,19.60
2023-01-13T08:13:20.812Z,22.80
2023-01-13T08:15:50.102Z,19.70
2023-01-13T08:18:20.837Z,17.70
2023-01-13T08:20:48.704Z,22.90
2023-01-13T08:23:15.869Z,26.30
2023-01-13T08:25:42.522Z,21.60
2023-01-13T08:28:09.234Z,23.50
2023-01-13T08:30:35.960Z,23.77
2023-01-13T08:33:06.053Z,26.33
2023-01-13T08:35:32.716Z,22.92
2023-01-13T08:37:59.735Z,17.97
2023-01-13T08:40:26.346Z,22.27
2023-01-13T08:42:55.610Z,24.33
2023-01-13T08:45:22.194Z,23.20
2023-01-13T08:47:48.778Z,25.15
2023-01-13T08:50:15.539Z,23.53
2023-01-13T08:52:42.482Z,19.77
2023-01-13T08:55:09.827Z,24.65
2023-01-13T08:57:36.601Z,21.27
2023-01-13T09:00:05.873Z,21.25
2023-01-13T09:02:32.847Z,25.30
2023-01-13T09:05:02.749Z,24.10
2023-01-13T09:07:30.217Z,20.77
2023-01-13T09:09:56.995Z,24.75
2023-01-13T09:12:42.071Z,16.65
2023-01-13T09:15:09.523Z,20.07
2023-01-13T09:17:36.207Z,18.10
2023-01-13T09:20:02.879Z,18.90
2023-01-13T09:22:29.514Z,19.95
2023-01-13T09:24:56.391Z,27.92
2023-01-13T09:27:23.515Z,26.53
2023-01-13T09:29:50.415Z,21.33
2023-01-13T09:32:17.355Z,24.50
2023-01-13T09:35:02.237Z,22.88
2023-01-13T09:37:29.901Z,18.58
2023-01-13T09:39:56.902Z,19.07
2023-01-13T09:43:04.942Z,19.30
2023-01-13T09:45:34.927Z,28.83
2023-01-13T09:48:05.201Z,22.35
2023-01-13T09:50:59.706Z,20.30
2023-01-13T09:53:32.289Z,17.70
2023-01-13T09:55:58.968Z,24.40
2023-01-13T09:58:25.956Z,17.20
2023-01-13T10:00:55.606Z,29.65
2023-01-13T10:03:30.416Z,16.02
2023-01-13T10:06:23.849Z,20.20
2023-01-13T10:08:51.070Z,19.40
2023-01-13T10:11:42.051Z,19.30
2023-01-13T10:14:41.257Z,24.33
2023-01-13T10:17:30.286Z,29.85
2023-01-13T10:20:17.666Z,26.50
2023-01-13T10:23:03.071Z,19.67
2023-01-13T10:25:32.536Z,27.23
2023-01-13T10:28:09.118Z,23.10
2023-01-13T10:30:39.949Z,24.83
2023-01-13T10:33:20.540Z,22.60
2023-01-13T10:35:54.513Z,18.23
2023-01-13T10:38:25.612Z,27.38
2023-01-13T10:40:53.719Z,25.85
2023-01-13T10:43:20.552Z,22.00
2023-01-13T10:46:02.037Z,30.63
2023-01-13T10:48:43.655Z,26.30
2023-01-13T10:51:13.985Z,23.27
2023-01-13T10:54:02.650Z,23.73
2023-01-13T10:56:34.054Z,22.52
2023-01-13T10:59:19.421Z,18.47
2023-01-13T11:02:27.930Z,23.92
2023-01-13T11:04:54.986Z,21.10
2023-01-13T11:07:26.818Z,22.60
2023-01-13T11:10:19.662Z,19.05
2023-01-13T11:13:09.605Z,22.03
2023-01-13T11:16:00.806Z,17.52
2023-01-13T11:19:02.140Z,16.58
2023-01-13T11:21:37.468Z,17.45
2023-01-13T11:24:21.812Z,23.15
2023-01-13T11:26:56.790Z,14.90
2023-01-13T11:30:09.635Z,21.95
2023-01-13T11:33:00.373Z,17.75
2023-01-13T11:35:29.802Z,15.50
2023-01-13T11:38:04.405Z,23.52
2023-01-13T11:40:38.784Z,17.63
2023-01-13T11:43:17.854Z,11.30
2023-01-13T11:45:49.546Z,14.40
2023-01-13T11:48:20.793Z,18.50
2023-01-13T11:51:08.052Z,15.77
2023-01-13T11:53:57.608Z,16.83
2023-01-13T11:56:48.819Z,13.82
2023-01-13T11:59:28.960Z,12.90
2023-01-13T12:02:11.832Z,14.77
2023-01-13T12:04:55.861Z,16.67
2023-01-13T12:07:48.936Z,14.70
2023-01-13T12:10:37.164Z,16.23
2023-01-13T12:13:08.058Z,16.30
2023-01-13T12:15:43.699Z,14.88
2023-01-13T12:18:19.263Z,14.75
2023-01-13T12:20:52.132Z,16.87
2023-01-13T12:23:45.712Z,15.63
2023-01-13T12:26:16.070Z,18.33
2023-01-13T12:29:04.697Z,15.20
2023-01-13T12:31:34.604Z,17.73
2023-01-13T12:34:19.498Z,20.57
2023-01-13T12:37:04.144Z,18.50
2023-01-13T12:39:51.667Z,15.40
2023-01-13T12:42:58.439Z,13.98
2023-01-13T12:45:28.512Z,18.73
2023-01-13T12:47:55.850Z,18.30
2023-01-13T12:50:22.755Z,17.17
2023-01-13T12:52:57.656Z,18.40
2023-01-13T12:55:31.167Z,17.83
2023-01-13T12:58:06.765Z,16.30
2023-01-13T13:01:06.756Z,15.43
2023-01-13T13:03:35.438Z,12.55
2023-01-13T13:06:13.401Z,13.05
2023-01-13T13:09:03.755Z,18.13
2023-01-13T13:11:58.525Z,13.98
2023-01-13T13:14:45.675Z,17.63
2023-01-13T13:17:31.582Z,14.05
2023-01-13T13:20:00.156Z,12.13
2023-01-13T13:22:26.849Z,11.95
2023-01-13T13:24:56.153Z,13.90
2023-01-13T13:27:48.941Z,16.73
2023-01-13T13:30:25.206Z,12.95
2023-01-13T13:33:19.905Z,15.38
2023-01-13T13:36:05.187Z,14.18
2023-01-13T13:39:28.293Z,16.60
2023-01-13T13:42:22.834Z,15.00
2023-01-13T13:45:09.426Z,17.10
2023-01-13T13:47:39.465Z,13.32
2023-01-13T13:50:13.731Z,10.38
2023-01-13T13:52:51.722Z,9.70
2023-01-13T13:55:25.457Z,12.33
2023-01-13T13:57:54.033Z,12.70
2023-01-13T14:00:25.120Z,11.63
2023-01-13T14:02:56.195Z,9.85
2023-01-13T14:05:24.346Z,13.70
2023-01-13T14:08:21.552Z,15.10
2023-01-13T14:10:48.460Z,11.60
2023-01-13T14:13:18.759Z,18.92
2023-01-13T14:15:47.203Z,15.98
2023-01-13T14:18:17.431Z,16.52
2023-01-13T14:20:51.373Z,12.40
2023-01-13T14:23:18.334Z,17.88
2023-01-13T14:25:50.320Z,14.60
2023-01-13T14:28:22.946Z,12.02
2023-01-13T14:30:51.321Z,15.07
2023-01-13T14:33:22.011Z,17.37
2023-01-13T14:36:04.449Z,11.23
2023-01-13T14:38:31.019Z,12.77
2023-01-13T14:40:57.704Z,10.32
2023-01-13T14:43:25.888Z,18.20
2023-01-13T14:46:02.527Z,15.53
2023-01-13T14:48:35.854Z,9.90
2023-01-13T14:51:05.807Z,14.25
2023-01-13T14:53:47.031Z,18.30
2023-01-13T14:56:43.429Z,13.77
2023-01-13T14:59:34.782Z,17.30
2023-01-13T15:02:22.395Z,16.10
2023-01-13T15:04:50.788Z,16.98
2023-01-13T15:07:25.043Z,16.88
2023-01-13T15:09:54.994Z,15.15
2023-01-13T15:12:36.134Z,14.70
2023-01-13T15:15:06.568Z,13.10
2023-01-13T15:17:34.770Z,13.40
2023-01-13T15:20:01.421Z,13.70
2023-01-13T15:22:29.720Z,17.45
2023-01-13T15:24:57.317Z,14.07
2023-01-13T15:27:26.311Z,15.88
2023-01-13T15:29:52.942Z,14.38
2023-01-13T15:32:21.524Z,17.08
2023-01-13T15:34:48.468Z,13.38
2023-01-13T15:37:17.002Z,17.23
2023-01-13T15:39:43.863Z,17.00
2023-01-13T15:42:45.852Z,10.48
2023-01-13T15:45:31.739Z,15.45
2023-01-13T15:47:59.942Z,11.73
2023-01-13T15:50:27.248Z,16.63
2023-01-13T15:52:53.880Z,12.05
2023-01-13T15:55:20.489Z,18.27
2023-01-13T15:57:50.072Z,9.90
2023-01-13T16:00:22.837Z,13.25
2023-01-13T16:02:50.646Z,17.50
2023-01-13T16:05:17.507Z,18.70
2023-01-13T16:07:44.149Z,15.90
2023-01-13T16:10:26.660Z,15.10
2023-01-13T16:12:56.007Z,13.23
2023-01-13T16:15:22.823Z,18.37
2023-01-13T16:17:56.191Z,14.63
2023-01-13T16:20:23.539Z,13.18
2023-01-13T16:22:50.413Z,14.65
2023-01-13T16:25:19.692Z,15.60
2023-01-13T16:27:47.332Z,14.60
2023-01-13T16:30:28.119Z,11.98
2023-01-13T16:32:55.152Z,14.65
2023-01-13T16:35:22.560Z,15.57
2023-01-13T16:37:49.472Z,11.55
2023-01-13T16:40:25.791Z,12.77
2023-01-13T16:42:52.832Z,13.52
2023-01-13T16:45:19.844Z,19.13
2023-01-13T16:47:46.559Z,14.32
2023-01-13T16:50:30.508Z,13.27
2023-01-13T16:52:57.055Z,12.00
2023-01-13T16:55:23.674Z,15.82
2023-01-13T16:57:50.391Z,13.98
2023-01-13T17:00:17.830Z,14.80
2023-01-13T17:02:44.716Z,14.68
2023-01-13T17:05:13.008Z,13.83
2023-01-13T17:07:45.053Z,11.27
2023-01-13T17:10:21.513Z,16.63
2023-01-13T17:12:48.336Z,13.50
2023-01-13T17:15:17.046Z,14.30
2023-01-13T17:17:47.315Z,10.67
2023-01-13T17:20:15.454Z,5.88
2023-01-13T17:22:43.899Z,8.77
2023-01-13T17:25:13.853Z,9.77
2023-01-13T17:27:42.040Z,9.30
2023-01-13T17:30:10.527Z,7.93
2023-01-13T17:32:37.112Z,6.43
2023-01-13T17:35:04.127Z,5.90
2023-01-13T17:37:30.791Z,3.78
2023-01-13T17:39:57.379Z,5.10
2023-01-13T17:42:27.745Z,7.47
2023-01-13T17:44:54.645Z,2.88
2023-01-13T17:47:21.415Z,6.95
2023-01-13T17:49:48.060Z,4.10
2023-01-13T17:52:14.631Z,8.70
2023-01-13T17:54:43.013Z,3.00
2023-01-13T17:57:10.687Z,5.15
2023-01-13T17:59:37.449Z,3.08
2023-01-13T18:02:04.828Z,3.80
2023-01-13T18:04:31.656Z,5.80
2023-01-13T18:06:58.369Z,10.27
2023-01-13T18:09:25.890Z,7.07
2023-01-13T18:11:52.667Z,8.27
2023-01-13T18:14:22.421Z,9.30
2023-01-13T18:16:49.554Z,7.80
2023-01-13T18:19:34.667Z,8.63
2023-01-13T18:22:19.916Z,9.20
2023-01-13T18:25:05.527Z,11.93
2023-01-13T18:27:42.756Z,7.97
2023-01-13T18:30:10.250Z,9.27
2023-01-13T18:32:37.208Z,13.40
2023-01-13T18:35:09.920Z,10.48
2023-01-13T18:37:42.872Z,11.20
2023-01-13T18:40:12.391Z,7.90
2023-01-13T18:42:51.583Z,8.25
2023-01-13T18:45:30.028Z,12.77
2023-01-13T18:47:58.954Z,10.20
2023-01-13T18:50:27.038Z,9.32
2023-01-13T18:52:54.172Z,10.23
2023-01-13T18:55:21.385Z,14.93
2023-01-13T18:57:48.086Z,10.10
2023-01-13T19:00:19.022Z,9.00
2023-01-13T19:02:47.292Z,14.85
2023-01-13T19:05:14.345Z,13.50
2023-01-13T19:07:41.148Z,14.35
2023-01-13T19:10:09.653Z,9.90
2023-01-13T19:12:36.451Z,13.05
2023-01-13T19:15:03.181Z,17.90
2023-01-13T19:17:34.923Z,9.80
2023-01-13T19:20:01.984Z,7.13
2023-01-13T19:22:33.811Z,14.37
2023-01-13T19:25:01.963Z,17.85
2023-01-13T19:27:29.234Z,13.20
2023-01-13T19:30:00.537Z,13.07
2023-01-13T19:32:28.274Z,11.05
2023-01-13T19:34:59.113Z,14.07
2023-01-13T19:37:30.099Z,9.25
2023-01-13T19:39:58.420Z,11.65
2023-01-13T19:42:44.335Z,9.07
2023-01-13T19:45:26.640Z,13.73
2023-01-13T19:47:53.736Z,12.40
2023-01-13T19:50:20.368Z,11.73
2023-01-13T19:52:47.004Z,6.30
2023-01-13T19:55:13.680Z,14.15
2023-01-13T19:57:40.815Z,11.52
2023-01-13T20:00:08.774Z,11.87
2023-01-13T20:02:36.878Z,12.60
2023-01-13T20:05:06.379Z,11.63
2023-01-13T20:07:33.823Z,8.60
2023-01-13T20:10:01.505Z,10.85
2023-01-13T20:12:29.125Z,9.67
2023-01-13T20:14:55.816Z,7.32
2023-01-13T20:17:25.725Z,11.82
2023-01-13T20:19:52.810Z,9.45
2023-01-13T20:22:19.512Z,10.82
2023-01-13T20:24:46.204Z,9.17
2023-01-13T20:27:12.845Z,9.95
2023-01-13T20:29:39.571Z,6.13
2023-01-13T20:32:06.268Z,9.38
2023-01-13T20:34:32.996Z,9.65
2023-01-13T20:37:00.195Z,10.03
2023-01-13T20:39:28.090Z,13.20
2023-01-13T20:42:13.967Z,9.23
2023-01-13T20:44:41.018Z,15.52
2023-01-13T20:47:08.094Z,10.25
2023-01-13T20:49:36.778Z,14.60
2023-01-13T20:52:09.245Z,7.18
2023-01-13T20:54:37.111Z,10.48
2023-01-13T20:57:07.839Z,11.88
2023-01-13T20:59:34.416Z,8.13
2023-01-13T21:02:01.097Z,8.93
2023-01-13T21:04:27.722Z,17.08
2023-01-13T21:06:55.982Z,16.35
2023-01-13T21:09:27.127Z,14.90
2023-01-13T21:12:12.591Z,15.55
2023-01-13T21:14:58.021Z,7.40
2023-01-13T21:17:43.528Z,11.02
2023-01-13T21:20:12.319Z,17.63
2023-01-13T21:22:39.443Z,15.40
2023-01-13T21:25:06.811Z,11.93
2023-01-13T21:27:34.588Z,14.00
2023-01-13T21:30:01.217Z,17.45
2023-01-13T21:32:27.798Z,10.75
2023-01-13T21:34:54.364Z,14.77
2023-01-13T21:37:21.979Z,17.65
2023-01-13T21:39:49.160Z,13.43
2023-01-13T21:42:35.645Z,19.27
2023-01-13T21:45:21.552Z,12.25
2023-01-13T21:47:48.626Z,14.88
2023-01-13T21:50:21.683Z,14.23
2023-01-13T21:52:49.419Z,12.80
2023-01-13T21:55:28.369Z,15.88
2023-01-13T21:58:13.154Z,12.27
2023-01-13T22:00:42.378Z,14.48
2023-01-13T22:03:09.938Z,12.95
2023-01-13T22:05:37.104Z,11.50
2023-01-13T22:08:04.473Z,11.57
2023-01-13T22:10:31.806Z,15.10
2023-01-13T22:13:21.279Z,18.23
2023-01-13T22:15:48.064Z,11.45
2023-01-13T22:18:14.731Z,11.63
2023-01-13T22:20:41.980Z,19.15
2023-01-13T22:23:08.646Z,16.25
2023-01-13T22:25:35.392Z,15.57
2023-01-13T22:28:05.928Z,16.33
2023-01-13T22:30:33.109Z,17.27
2023-01-13T22:33:00.129Z,21.63
2023-01-13T22:35:27.116Z,13.13
2023-01-13T22:37:53.688Z,18.25
2023-01-13T22:40:20.380Z,19.77
2023-01-13T22:42:46.978Z,20.03
2023-01-13T22:45:14.275Z,17.30
2023-01-13T22:47:41.181Z,17.80
2023-01-13T22:50:10.249Z,12.02
2023-01-13T22:52:36.959Z,18.52
2023-01-13T22:55:04.276Z,13.90
2023-01-13T22:57:36.634Z,16.20
2023-01-13T23:00:14.744Z,11.82
2023-01-13T23:02:41.359Z,13.80
2023-01-13T23:05:08.237Z,13.57
2023-01-13T23:07:35.605Z,14.43
2023-01-13T23:10:02.559Z,14.43
2023-01-13T23:12:29.275Z,20.48
2023-01-13T23:14:55.969Z,15.40
2023-01-13T23:17:22.544Z,14.38
2023-01-13T23:19:49.151Z,20.07
2023-01-13T23:22:15.787Z,19.17
2023-01-13T23:24:42.405Z,20.70
2023-01-13T23:27:09.043Z,16.52
2023-01-13T23:29:35.606Z,16.02
2023-01-13T23:32:02.306Z,21.63
2023-01-13T23:34:28.971Z,16.73
2023-01-13T23:36:55.553Z,20.00
2023-01-13T23:39:22.195Z,15.48
2023-01-13T23:41:48.812Z,18.70
2023-01-13T23:44:15.465Z,17.47
2023-01-13T23:46:42.310Z,14.38
2023-01-13T23:49:08.921Z,14.38
2023-01-13T23:51:35.556Z,13.43
2023-01-13T23:54:02.244Z,16.33
2023-01-13T23:56:31.244Z,26.20
2023-01-13T23:58:58.583Z,19.08
